createdAt,value
2019-03-31T00:00:32.089Z,101901.84
2019-03-31T00:03:05.829Z,101910.34
2019-03-31T00:05:39.621Z,101911.63
2019-03-31T00:08:13.342Z,101911.63
2019-03-31T00:10:47.072Z,101915.66
2019-03-31T00:13:20.801Z,101925.19
2019-03-31T00:15:54.525Z,101925.19
2019-03-31T00:18:28.226Z,101931.31
2019-03-31T00:21:01.941Z,101926.80
2019-03-31T00:23:35.664Z,101931.53
2019-03-31T00:26:09.508Z,101929.16
2019-03-31T00:28:43.311Z,101923.92
2019-03-31T00:31:22.358Z,101931.61
2019-03-31T00:33:52.462Z,101931.61
2019-03-31T00:36:29.272Z,101936.30
2019-03-31T00:39:04.628Z,101936.30
2019-03-31T00:41:38.364Z,101936.69
2019-03-31T00:44:12.094Z,101932.34
2019-03-31T00:46:45.879Z,101932.45
2019-03-31T00:49:19.592Z,101932.45
2019-03-31T00:51:53.352Z,101931.99
2019-03-31T00:54:27.945Z,101937.31
2019-03-31T00:57:01.790Z,101937.31
2019-03-31T00:59:35.550Z,101920.20
2019-03-31T01:02:09.268Z,101948.80
2019-03-31T01:04:43.253Z,101947.80
2019-03-31T01:07:17.044Z,101947.80
2019-03-31T01:09:50.757Z,101953.38
2019-03-31T01:12:24.682Z,101948.10
2019-03-31T01:14:58.419Z,101948.59
2019-03-31T01:17:36.732Z,101947.03
2019-03-31T01:20:10.490Z,101947.03
2019-03-31T01:22:44.215Z,101966.25
2019-03-31T01:25:17.949Z,101960.14
2019-03-31T01:27:51.851Z,101964.47
2019-03-31T01:30:25.554Z,101969.30
2019-03-31T01:32:59.275Z,101966.77
2019-03-31T01:35:33.034Z,101966.77
2019-03-31T01:38:06.775Z,101970.75
2019-03-31T01:40:40.475Z,101970.75
2019-03-31T01:43:14.192Z,101975.23
2019-03-31T01:45:48.015Z,101977.29
2019-03-31T01:48:21.845Z,101977.29
2019-03-31T01:50:55.648Z,101985.80
2019-03-31T01:53:29.367Z,101992.86
2019-03-31T01:56:03.195Z,101992.86
2019-03-31T01:58:36.957Z,101991.62
2019-03-31T02:01:10.739Z,101989.20
2019-03-31T02:03:44.511Z,101992.94
2019-03-31T02:06:18.223Z,101999.11
2019-03-31T02:08:54.433Z,102002.42
2019-03-31T02:11:28.307Z,102002.42
2019-03-31T02:14:02.058Z,102009.50
2019-03-31T02:16:35.807Z,102015.39
2019-03-31T02:19:09.655Z,102017.56
2019-03-31T02:21:43.461Z,102017.56
2019-03-31T02:24:21.357Z,102023.84
2019-03-31T02:26:55.065Z,102023.27
2019-03-31T02:29:29.436Z,102028.87
2019-03-31T02:32:03.191Z,102026.05
2019-03-31T02:34:36.895Z,102026.05
2019-03-31T02:37:11.045Z,102021.89
2019-03-31T02:39:44.781Z,102033.33
2019-03-31T02:42:20.256Z,102031.56
2019-03-31T02:44:53.994Z,102032.35
2019-03-31T02:47:27.738Z,102032.35
2019-03-31T02:50:01.477Z,102032.41
2019-03-31T02:52:35.253Z,102030.19
2019-03-31T02:55:08.961Z,102034.16
2019-03-31T02:57:42.681Z,102033.16
2019-03-31T03:00:16.396Z,102029.20
2019-03-31T03:02:50.104Z,102029.20
2019-03-31T03:05:23.806Z,102039.77
2019-03-31T03:07:57.548Z,102039.77
2019-03-31T03:10:31.259Z,102046.97
2019-03-31T03:13:05.460Z,102046.97
2019-03-31T03:15:45.042Z,102051.05
2019-03-31T03:18:18.748Z,102059.00
2019-03-31T03:20:52.473Z,102059.00
2019-03-31T03:23:26.166Z,102059.38
2019-03-31T03:25:59.967Z,102068.84
2019-03-31T03:28:33.745Z,102068.84
2019-03-31T03:31:14.488Z,102068.48
2019-03-31T03:33:42.952Z,102068.48
2019-03-31T03:36:16.674Z,102077.16
2019-03-31T03:38:50.417Z,102082.30
2019-03-31T03:41:24.104Z,102082.30
2019-03-31T03:44:02.147Z,102076.94
2019-03-31T03:46:33.366Z,102079.97
2019-03-31T03:49:07.189Z,102064.09
2019-03-31T03:51:40.895Z,102067.71
2019-03-31T03:54:14.613Z,102067.71
2019-03-31T03:56:48.350Z,102064.89
2019-03-31T03:59:22.054Z,102064.89
2019-03-31T04:01:55.789Z,102067.73
2019-03-31T04:04:29.501Z,102072.73
2019-03-31T04:07:03.202Z,102069.08
2019-03-31T04:09:36.925Z,102069.06
2019-03-31T04:12:10.695Z,102073.07
2019-03-31T04:14:44.416Z,102073.07
2019-03-31T04:17:18.134Z,102068.91
2019-03-31T04:19:51.858Z,102068.91
2019-03-31T04:22:25.584Z,102067.16
2019-03-31T04:24:59.325Z,102073.48
2019-03-31T04:27:33.025Z,102070.89
2019-03-31T04:30:06.837Z,102073.55
2019-03-31T04:32:40.616Z,102069.65
2019-03-31T04:35:14.346Z,102069.65
2019-03-31T04:37:48.069Z,102082.48
2019-03-31T04:40:21.814Z,102090.80
2019-03-31T04:42:55.595Z,102085.70
2019-03-31T04:45:29.310Z,102085.70
2019-03-31T04:48:03.029Z,102089.72
2019-03-31T04:50:36.763Z,102087.70
2019-03-31T04:53:10.468Z,102087.70
2019-03-31T04:55:44.177Z,102083.27
2019-03-31T04:58:17.892Z,102083.27
2019-03-31T05:00:51.602Z,102101.73
2019-03-31T05:03:25.527Z,102104.60
2019-03-31T05:05:59.229Z,102102.00
2019-03-31T05:08:32.940Z,102106.83
2019-03-31T05:11:06.681Z,102106.98
2019-03-31T05:13:40.385Z,102107.50
2019-03-31T05:16:14.087Z,102112.77
2019-03-31T05:18:47.919Z,102109.00
2019-03-31T05:21:21.632Z,102109.00
2019-03-31T05:23:55.353Z,102118.62
2019-03-31T05:26:29.064Z,102118.62
2019-03-31T05:29:02.787Z,102129.71
2019-03-31T05:31:36.521Z,102137.29
2019-03-31T05:34:18.828Z,102133.41
2019-03-31T05:36:45.658Z,102146.77
2019-03-31T05:39:19.357Z,102145.66
2019-03-31T05:41:53.106Z,102145.66
2019-03-31T05:44:26.839Z,102159.56
2019-03-31T05:47:00.563Z,102166.70
2019-03-31T05:49:34.289Z,102166.70
2019-03-31T05:52:08.035Z,102173.36
2019-03-31T05:54:41.746Z,102173.36
2019-03-31T05:57:15.448Z,102180.80
2019-03-31T05:59:49.166Z,102180.80
2019-03-31T06:02:22.924Z,102182.20
2019-03-31T06:04:56.633Z,102188.30
2019-03-31T06:07:30.330Z,102183.45
2019-03-31T06:10:05.589Z,102166.66
2019-03-31T06:12:39.291Z,102166.66
2019-03-31T06:15:13.023Z,102194.28
2019-03-31T06:17:46.729Z,102198.94
2019-03-31T06:20:20.439Z,102200.45
2019-03-31T06:22:54.184Z,102202.20
2019-03-31T06:25:27.884Z,102206.35
2019-03-31T06:28:03.229Z,102201.43
2019-03-31T06:30:36.963Z,102210.45
2019-03-31T06:33:10.692Z,102213.74
2019-03-31T06:35:44.414Z,102213.74
2019-03-31T06:38:18.139Z,102217.30
2019-03-31T06:40:51.838Z,102224.25
2019-03-31T06:43:25.574Z,102226.91
2019-03-31T06:45:59.793Z,102226.91
2019-03-31T06:48:33.504Z,102238.34
2019-03-31T06:51:07.216Z,102238.34
2019-03-31T06:53:40.934Z,102236.49
2019-03-31T06:56:14.645Z,102236.49
2019-03-31T06:58:48.422Z,102238.39
2019-03-31T07:01:22.135Z,102244.41
2019-03-31T07:03:55.834Z,102250.06
2019-03-31T07:06:29.572Z,102250.06
2019-03-31T07:09:04.401Z,102249.38
2019-03-31T07:11:38.110Z,102258.47
2019-03-31T07:14:12.770Z,102258.47
2019-03-31T07:16:46.536Z,102269.08
2019-03-31T07:19:20.224Z,102269.08
2019-03-31T07:21:53.936Z,102275.83
2019-03-31T07:24:27.664Z,102285.91
2019-03-31T07:27:01.406Z,102279.71
2019-03-31T07:29:35.100Z,102280.05
2019-03-31T07:32:08.790Z,102280.05
2019-03-31T07:34:42.494Z,102290.16
2019-03-31T07:37:16.192Z,102295.70
2019-03-31T07:39:50.002Z,102294.25
2019-03-31T07:42:24.147Z,102294.25
2019-03-31T07:44:57.843Z,102305.03
2019-03-31T07:47:31.537Z,102298.00
2019-03-31T07:50:10.589Z,102309.66
2019-03-31T07:52:44.353Z,102307.69
2019-03-31T07:55:18.087Z,102312.61
2019-03-31T07:57:54.626Z,102308.37
2019-03-31T08:00:27.438Z,102308.37
2019-03-31T08:03:01.159Z,102305.48
2019-03-31T08:05:37.562Z,102315.17
2019-03-31T08:08:10.245Z,102315.17
2019-03-31T08:10:43.949Z,102312.70
2019-03-31T08:13:17.670Z,102312.70
2019-03-31T08:15:51.367Z,102317.45
2019-03-31T08:18:25.069Z,102319.53
2019-03-31T08:20:58.788Z,102326.12
2019-03-31T08:23:32.483Z,102326.12
2019-03-31T08:26:06.175Z,102327.48
2019-03-31T08:28:39.884Z,102314.61
2019-03-31T08:31:13.591Z,102323.17
2019-03-31T08:33:47.293Z,102320.56
2019-03-31T08:36:20.989Z,102327.63
2019-03-31T08:38:54.695Z,102324.73
2019-03-31T08:41:28.410Z,102331.56
2019-03-31T08:44:02.105Z,102335.45
2019-03-31T08:46:35.810Z,102342.84
2019-03-31T08:49:09.482Z,102342.84
2019-03-31T08:51:43.184Z,102349.75
2019-03-31T08:54:16.972Z,102344.44
2019-03-31T08:56:50.728Z,102344.44
2019-03-31T08:59:24.421Z,102352.37
2019-03-31T09:01:58.137Z,102363.22
2019-03-31T09:04:31.854Z,102370.62
2019-03-31T09:07:05.557Z,102370.62
2019-03-31T09:09:39.268Z,102367.09
2019-03-31T09:12:12.974Z,102368.93
2019-03-31T09:14:46.690Z,102374.23
2019-03-31T09:17:20.428Z,102372.96
2019-03-31T09:19:54.182Z,102374.08
2019-03-31T09:22:27.907Z,102372.73
2019-03-31T09:25:01.666Z,102376.58
2019-03-31T09:27:35.394Z,102372.55
2019-03-31T09:30:10.313Z,102381.86
2019-03-31T09:32:44.014Z,102375.28
2019-03-31T09:35:17.778Z,102370.44
2019-03-31T09:37:51.506Z,102370.44
2019-03-31T09:40:25.288Z,102383.05
2019-03-31T09:42:59.067Z,102383.05
2019-03-31T09:45:32.794Z,102391.27
2019-03-31T09:48:06.531Z,102382.39
2019-03-31T09:50:40.247Z,102380.87
2019-03-31T09:53:13.979Z,102378.16
2019-03-31T09:55:47.761Z,102382.79
2019-03-31T09:58:21.481Z,102387.09
2019-03-31T10:00:55.253Z,102392.60
2019-03-31T10:03:28.965Z,102390.49
2019-03-31T10:06:10.512Z,102394.41
2019-03-31T10:08:38.108Z,102394.41
2019-03-31T10:11:12.343Z,102398.59
2019-03-31T10:13:46.045Z,102397.98
2019-03-31T10:16:19.737Z,102393.23
2019-03-31T10:18:53.449Z,102393.23
2019-03-31T10:21:27.179Z,102393.23
2019-03-31T10:24:00.900Z,102389.30
2019-03-31T10:26:34.581Z,102388.34
2019-03-31T10:29:08.300Z,102393.12
2019-03-31T10:31:42.019Z,102398.94
2019-03-31T10:34:15.735Z,102398.94
2019-03-31T10:36:49.831Z,102394.44
2019-03-31T10:39:23.535Z,102404.26
2019-03-31T10:41:57.270Z,102404.26
2019-03-31T10:44:31.279Z,102393.35
2019-03-31T10:47:04.996Z,102393.35
2019-03-31T10:49:38.687Z,102399.41
2019-03-31T10:52:12.541Z,102397.73
2019-03-31T10:54:46.238Z,102399.64
2019-03-31T10:57:20.000Z,102398.56
2019-03-31T10:59:54.014Z,102397.45
2019-03-31T11:02:27.725Z,102392.75
2019-03-31T11:05:01.464Z,102387.34
2019-03-31T11:07:35.160Z,102391.48
2019-03-31T11:10:08.862Z,102401.06
2019-03-31T11:12:42.813Z,102401.06
2019-03-31T11:15:16.518Z,102407.22
2019-03-31T11:17:50.222Z,102407.22
2019-03-31T11:20:23.936Z,102409.39
2019-03-31T11:22:57.665Z,102410.73
2019-03-31T11:25:31.376Z,102410.73
2019-03-31T11:28:05.056Z,102411.71
2019-03-31T11:30:38.762Z,102410.30
2019-03-31T11:33:12.736Z,102416.73
2019-03-31T11:35:46.488Z,102413.05
2019-03-31T11:38:20.198Z,102417.94
2019-03-31T11:40:53.903Z,102427.77
2019-03-31T11:43:27.614Z,102423.13
2019-03-31T11:46:01.698Z,102425.31
2019-03-31T11:48:35.400Z,102424.55
2019-03-31T11:51:09.290Z,102424.55
2019-03-31T11:53:42.984Z,102428.16
2019-03-31T11:56:16.689Z,102426.32
2019-03-31T11:58:50.384Z,102418.16
2019-03-31T12:01:24.305Z,102418.16
2019-03-31T12:03:58.353Z,102420.16
2019-03-31T12:06:32.073Z,102415.12
2019-03-31T12:09:06.404Z,102413.94
2019-03-31T12:11:40.107Z,102413.94
2019-03-31T12:14:13.822Z,102405.27
2019-03-31T12:16:47.543Z,102405.27
2019-03-31T12:19:21.243Z,102407.92
2019-03-31T12:21:54.979Z,102403.02
2019-03-31T12:24:28.698Z,102403.02
2019-03-31T12:27:02.387Z,102412.95
2019-03-31T12:29:36.125Z,102393.94
2019-03-31T12:32:09.904Z,102393.94
2019-03-31T12:34:43.617Z,102396.53
2019-03-31T12:37:17.335Z,102396.53
2019-03-31T12:39:51.054Z,102396.14
2019-03-31T12:42:24.748Z,102396.14
2019-03-31T12:44:58.469Z,102397.08
2019-03-31T12:47:32.293Z,102386.73
2019-03-31T12:50:06.169Z,102383.30
2019-03-31T12:52:46.634Z,102383.30
2019-03-31T12:55:15.319Z,102379.03
2019-03-31T12:57:51.720Z,102379.03
2019-03-31T13:00:24.443Z,102380.66
2019-03-31T13:02:58.163Z,102380.59
2019-03-31T13:05:31.879Z,102378.92
2019-03-31T13:08:05.615Z,102378.92
2019-03-31T13:10:39.338Z,102377.33
2019-03-31T13:13:13.239Z,102378.17
2019-03-31T13:15:46.971Z,102383.33
2019-03-31T13:18:20.676Z,102381.27
2019-03-31T13:20:54.362Z,102374.95
2019-03-31T13:23:28.057Z,102374.95
2019-03-31T13:26:01.768Z,102377.32
2019-03-31T13:28:35.459Z,102378.78
2019-03-31T13:31:09.182Z,102384.67
2019-03-31T13:33:42.914Z,102382.53
2019-03-31T13:36:16.628Z,102378.73
2019-03-31T13:38:50.418Z,102386.22
2019-03-31T13:41:24.128Z,102386.22
2019-03-31T13:43:57.831Z,102388.86
2019-03-31T13:46:31.548Z,102388.86
2019-03-31T13:49:05.254Z,102371.22
2019-03-31T13:51:38.972Z,102377.33
2019-03-31T13:54:12.694Z,102382.91
2019-03-31T13:56:48.923Z,102382.91
2019-03-31T13:59:21.809Z,102381.63
2019-03-31T14:01:55.829Z,102379.03
2019-03-31T14:04:29.517Z,102371.78
2019-03-31T14:07:04.530Z,102362.31
2019-03-31T14:09:38.434Z,102362.31
2019-03-31T14:12:12.517Z,102360.61
2019-03-31T14:14:46.235Z,102369.48
2019-03-31T14:17:19.928Z,102371.19
2019-03-31T14:19:53.632Z,102371.19
2019-03-31T14:22:27.357Z,102371.59
2019-03-31T14:25:01.066Z,102368.22
2019-03-31T14:27:34.756Z,102369.23
2019-03-31T14:30:08.820Z,102375.58
2019-03-31T14:32:42.567Z,102373.27
2019-03-31T14:35:16.274Z,102373.27
2019-03-31T14:37:50.004Z,102376.91
2019-03-31T14:40:23.712Z,102384.43
2019-03-31T14:42:57.408Z,102383.82
2019-03-31T14:45:32.561Z,102382.46
2019-03-31T14:48:06.282Z,102382.46
2019-03-31T14:50:40.371Z,102387.47
2019-03-31T14:53:14.070Z,102393.63
2019-03-31T14:55:47.779Z,102393.63
2019-03-31T14:58:21.478Z,102385.85
2019-03-31T15:00:55.239Z,102388.80
2019-03-31T15:03:28.958Z,102388.80
2019-03-31T15:06:02.650Z,102384.41
2019-03-31T15:08:36.363Z,102383.30
2019-03-31T15:11:10.158Z,102383.53
2019-03-31T15:13:44.216Z,102383.53
2019-03-31T15:16:17.929Z,102376.27
2019-03-31T15:18:51.645Z,102376.27
2019-03-31T15:21:25.350Z,102382.80
2019-03-31T15:23:59.046Z,102382.80
2019-03-31T15:26:32.754Z,102380.62
2019-03-31T15:29:06.485Z,102375.48
2019-03-31T15:31:40.183Z,102379.55
2019-03-31T15:34:13.873Z,102374.11
2019-03-31T15:36:47.592Z,102374.11
2019-03-31T15:39:21.279Z,102385.17
2019-03-31T15:41:55.007Z,102387.67
2019-03-31T15:44:28.694Z,102387.67
2019-03-31T15:47:02.401Z,102378.80
2019-03-31T15:49:36.079Z,102380.97
2019-03-31T15:52:09.817Z,102374.92
2019-03-31T15:54:43.543Z,102377.89
2019-03-31T15:57:17.332Z,102377.89
2019-03-31T15:59:51.767Z,102383.00
2019-03-31T16:02:25.461Z,102383.30
2019-03-31T16:04:59.189Z,102397.03
2019-03-31T16:07:32.947Z,102394.98
2019-03-31T16:10:06.660Z,102394.98
2019-03-31T16:12:40.361Z,102395.53
2019-03-31T16:15:14.491Z,102389.72
2019-03-31T16:17:48.210Z,102396.37
2019-03-31T16:20:21.924Z,102396.37
2019-03-31T16:22:55.698Z,102403.75
2019-03-31T16:25:29.399Z,102392.37
2019-03-31T16:28:03.116Z,102392.37
2019-03-31T16:30:36.868Z,102398.07
2019-03-31T16:33:10.574Z,102400.52
2019-03-31T16:35:44.277Z,102400.52
2019-03-31T16:38:18.272Z,102400.55
2019-03-31T16:40:52.056Z,102392.11
2019-03-31T16:43:25.780Z,102404.33
2019-03-31T16:45:59.503Z,102404.74
2019-03-31T16:48:33.209Z,102404.74
2019-03-31T16:51:07.247Z,102402.09
2019-03-31T16:53:40.963Z,102401.64
2019-03-31T16:56:18.920Z,102401.64
2019-03-31T16:58:52.656Z,102411.38
2019-03-31T17:01:26.364Z,102414.84
2019-03-31T17:04:00.142Z,102416.03
2019-03-31T17:06:36.116Z,102414.20
2019-03-31T17:09:09.830Z,102419.14
2019-03-31T17:11:43.542Z,102419.14
2019-03-31T17:14:17.262Z,102418.52
2019-03-31T17:16:51.062Z,102418.52
2019-03-31T17:19:24.842Z,102431.73
2019-03-31T17:21:59.921Z,102410.94
2019-03-31T17:24:34.136Z,102437.98
2019-03-31T17:27:07.852Z,102436.60
2019-03-31T17:29:41.656Z,102436.60
2019-03-31T17:32:15.362Z,102440.42
2019-03-31T17:34:49.109Z,102442.56
2019-03-31T17:37:22.886Z,102443.77
2019-03-31T17:40:06.129Z,102443.81
2019-03-31T17:42:32.010Z,102448.45
2019-03-31T17:45:06.188Z,102448.45
2019-03-31T17:47:39.897Z,102450.59
2019-03-31T17:50:13.619Z,102445.22
2019-03-31T17:52:47.341Z,102445.22
2019-03-31T17:55:21.264Z,102455.72
2019-03-31T17:57:55.233Z,102459.12
2019-03-31T18:00:30.683Z,102451.13
2019-03-31T18:03:06.239Z,102461.94
2019-03-31T18:05:39.969Z,102461.21
2019-03-31T18:08:16.974Z,102458.16
2019-03-31T18:10:50.799Z,102462.14
2019-03-31T18:13:24.624Z,102462.14
2019-03-31T18:15:58.492Z,102468.64
2019-03-31T18:18:32.444Z,102465.91
2019-03-31T18:21:06.259Z,102471.34
2019-03-31T18:23:39.973Z,102471.34
2019-03-31T18:26:13.679Z,102475.48
2019-03-31T18:28:47.401Z,102470.80
2019-03-31T18:31:21.176Z,102470.80
2019-03-31T18:33:54.884Z,102477.34
2019-03-31T18:36:36.465Z,102477.34
2019-03-31T18:39:05.931Z,102485.25
2019-03-31T18:41:39.643Z,102484.53
2019-03-31T18:44:13.353Z,102496.39
2019-03-31T18:46:47.063Z,102490.63
2019-03-31T18:49:20.753Z,102490.63
2019-03-31T18:51:54.499Z,102488.59
2019-03-31T18:54:28.195Z,102494.55
2019-03-31T18:57:01.993Z,102482.09
2019-03-31T18:59:35.733Z,102509.61
2019-03-31T19:02:09.501Z,102509.61
2019-03-31T19:04:43.235Z,102498.06
2019-03-31T19:07:17.225Z,102498.06
2019-03-31T19:09:50.968Z,102506.94
2019-03-31T19:12:24.690Z,102487.94
2019-03-31T19:14:58.384Z,102511.84
2019-03-31T19:17:32.134Z,102504.58
2019-03-31T19:20:05.839Z,102505.92
2019-03-31T19:22:39.543Z,102509.75
2019-03-31T19:25:13.255Z,102509.44
2019-03-31T19:27:46.991Z,102511.09
2019-03-31T19:30:20.679Z,102511.09
2019-03-31T19:32:54.392Z,102511.81
2019-03-31T19:35:28.100Z,102515.23
2019-03-31T19:38:01.828Z,102511.42
2019-03-31T19:40:35.549Z,102509.33
2019-03-31T19:43:09.250Z,102519.23
2019-03-31T19:45:43.038Z,102516.35
2019-03-31T19:48:16.734Z,102516.35
2019-03-31T19:50:50.440Z,102519.03
2019-03-31T19:53:24.147Z,102525.94
2019-03-31T19:56:07.440Z,102525.94
2019-03-31T19:58:33.356Z,102525.21
2019-03-31T20:01:07.069Z,102525.21
2019-03-31T20:03:40.925Z,102529.86
2019-03-31T20:06:14.636Z,102539.16
2019-03-31T20:08:48.341Z,102539.27
2019-03-31T20:11:22.087Z,102539.70
2019-03-31T20:13:55.841Z,102520.48
2019-03-31T20:16:29.552Z,102520.48
2019-03-31T20:19:03.887Z,102538.33
2019-03-31T20:21:38.870Z,102541.09
2019-03-31T20:24:12.690Z,102541.09
2019-03-31T20:26:46.396Z,102537.10
2019-03-31T20:29:20.135Z,102539.29
2019-03-31T20:31:54.361Z,102535.06
2019-03-31T20:34:28.415Z,102535.06
2019-03-31T20:37:02.171Z,102536.95
2019-03-31T20:39:35.900Z,102537.12
2019-03-31T20:42:09.619Z,102532.36
2019-03-31T20:44:43.315Z,102532.36
2019-03-31T20:47:17.026Z,102536.36
2019-03-31T20:49:50.809Z,102537.57
2019-03-31T20:52:26.133Z,102535.06
2019-03-31T20:54:59.869Z,102531.78
2019-03-31T20:57:33.860Z,102531.78
2019-03-31T21:00:09.557Z,102543.28
2019-03-31T21:02:43.365Z,102538.59
2019-03-31T21:05:17.137Z,102532.08
2019-03-31T21:07:51.749Z,102532.08
2019-03-31T21:10:25.575Z,102537.48
2019-03-31T21:12:59.317Z,102539.30
2019-03-31T21:15:33.009Z,102539.30
2019-03-31T21:18:06.660Z,102549.03
2019-03-31T21:20:40.391Z,102542.98
2019-03-31T21:23:14.101Z,102542.98
2019-03-31T21:25:47.811Z,102550.74
2019-03-31T21:28:21.499Z,102550.74
2019-03-31T21:30:55.303Z,102553.39
2019-03-31T21:33:29.037Z,102553.41
2019-03-31T21:36:02.819Z,102553.41
2019-03-31T21:38:36.515Z,102556.61
2019-03-31T21:41:13.928Z,102558.39
2019-03-31T21:43:46.007Z,102558.17
2019-03-31T21:46:19.690Z,102559.20
2019-03-31T21:48:53.423Z,102562.91
2019-03-31T21:51:27.134Z,102559.14
2019-03-31T21:54:01.008Z,102559.01
2019-03-31T21:56:34.702Z,102559.86
2019-03-31T21:59:08.412Z,102559.86
2019-03-31T22:01:42.172Z,102560.26
2019-03-31T22:04:17.632Z,102560.26
2019-03-31T22:06:51.354Z,102566.25
2019-03-31T22:09:25.273Z,102568.48
2019-03-31T22:11:59.021Z,102566.27
2019-03-31T22:14:32.703Z,102563.55
2019-03-31T22:17:06.422Z,102567.45
2019-03-31T22:19:40.129Z,102568.78
2019-03-31T22:22:13.904Z,102563.47
2019-03-31T22:24:47.689Z,102555.87
2019-03-31T22:27:21.398Z,102560.69
2019-03-31T22:29:58.221Z,102575.07
2019-03-31T22:32:31.912Z,102575.07
2019-03-31T22:35:07.414Z,102560.82
2019-03-31T22:37:41.133Z,102560.59
2019-03-31T22:40:14.832Z,102562.86
2019-03-31T22:42:48.546Z,102555.72
2019-03-31T22:45:23.901Z,102555.72
2019-03-31T22:47:57.660Z,102561.77
2019-03-31T22:50:31.455Z,102549.16
2019-03-31T22:53:05.166Z,102549.16
2019-03-31T22:55:40.150Z,102558.65
2019-03-31T22:58:13.900Z,102564.53
2019-03-31T23:00:47.590Z,102558.33
2019-03-31T23:03:23.050Z,102563.20
2019-03-31T23:05:58.844Z,102561.73
2019-03-31T23:08:32.678Z,102554.39
2019-03-31T23:11:06.481Z,102554.39
2019-03-31T23:13:40.185Z,102557.64
2019-03-31T23:16:14.161Z,102539.88
2019-03-31T23:18:47.869Z,102539.88
2019-03-31T23:21:21.631Z,102542.47
2019-03-31T23:23:55.379Z,102554.52
2019-03-31T23:26:32.075Z,102554.52
2019-03-31T23:29:06.749Z,102548.02
2019-03-31T23:31:40.522Z,102550.11
2019-03-31T23:34:14.223Z,102549.80
2019-03-31T23:36:48.173Z,102543.92
2019-03-31T23:39:21.883Z,102543.92
2019-03-31T23:41:55.599Z,102547.61
2019-03-31T23:44:29.308Z,102543.56
2019-03-31T23:47:03.081Z,102540.50
2019-03-31T23:49:36.777Z,102543.84
2019-03-31T23:52:10.577Z,102543.84
2019-03-31T23:54:44.274Z,102540.95
2019-03-31T23:57:20.733Z,102542.70
2019-03-31T23:59:54.425Z,102543.29
